Time;durP1;ratioP1;P1;durP2;ratioP2;P2;SDS_P1;SDS_P2;PMS_P1;PMS_P2;Temp;Humidity;BMP_temperature;BMP_pressure;BME280_temperature;BME280_humidity;BME280_pressure;Samples;Min_cycle;Max_cycle;Signal;HPM_P1;HPM_P2
2022/09/17 00:01:48;;;;;;;1.50;1.40;;;;;;;;;;5074367;28;20692;-60
2022/09/17 00:04:16;;;;;;;2.10;1.50;;;;;;;;;;5061388;28;20226;-60
2022/09/17 00:06:45;;;;;;;4.00;1.90;;;;;;;;;;5072630;28;20225;-61
2022/09/17 00:09:12;;;;;;;2.30;1.60;;;;;;;;;;5070629;28;20202;-61
2022/09/17 00:11:41;;;;;;;2.20;1.77;;;;;;;;;;5066707;28;20249;-60
2022/09/17 00:14:13;;;;;;;2.97;1.60;;;;;;;;;;5067021;28;20221;-60
2022/09/17 00:16:42;;;;;;;2.27;1.60;;;;;;;;;;5070972;28;20209;-61
2022/09/17 00:19:13;;;;;;;2.80;1.70;;;;;;;;;;5057716;28;20204;-60
2022/09/17 00:21:41;;;;;;;2.50;1.53;;;;;;;;;;5068667;28;20202;-60
2022/09/17 00:24:10;;;;;;;1.70;1.60;;;;;;;;;;5057643;28;20238;-60
2022/09/17 00:26:38;;;;;;;2.77;2.00;;;;;;;;;;5068963;28;20203;-60
2022/09/17 00:29:06;;;;;;;5.43;1.60;;;;;;;;;;5063553;28;20209;-60
2022/09/17 00:31:36;;;;;;;4.53;2.43;;;;;;;;;;5071480;28;20225;-60
2022/09/17 00:34:05;;;;;;;5.00;1.67;;;;;;;;;;5056968;28;20594;-60
2022/09/17 00:36:34;;;;;;;3.73;1.97;;;;;;;;;;5069314;28;20211;-60
2022/09/17 00:39:03;;;;;;;2.53;1.77;;;;;;;;;;5068764;28;20211;-60
2022/09/17 00:41:32;;;;;;;3.63;1.67;;;;;;;;;;5057122;28;20572;-61
2022/09/17 00:44:00;;;;;;;2.53;1.93;;;;;;;;;;5068924;28;20229;-60
2022/09/17 00:46:31;;;;;;;4.40;1.93;;;;;;;;;;5066758;28;20208;-60
2022/09/17 00:49:02;;;;;;;2.77;1.57;;;;;;;;;;5058643;28;20217;-60
2022/09/17 00:51:32;;;;;;;3.60;2.20;;;;;;;;;;5067768;28;20588;-60
2022/09/17 00:54:02;;;;;;;2.07;1.60;;;;;;;;;;5056955;28;20606;-61
2022/09/17 00:56:32;;;;;;;3.67;1.73;;;;;;;;;;5068493;28;20213;-61
2022/09/17 00:59:01;;;;;;;2.80;1.80;;;;;;;;;;5071198;28;20209;-60
2022/09/17 01:01:29;;;;;;;2.00;1.80;;;;;;;;;;5070927;28;20209;-60
2022/09/17 01:03:57;;;;;;;3.93;2.03;;;;;;;;;;5058625;28;20237;-60
2022/09/17 01:06:30;;;;;;;4.13;1.70;;;;;;;;;;5067893;28;20206;-61
2022/09/17 01:09:16;;;;;;;3.37;1.50;;;;;;;;;;5057333;28;20206;-61
2022/09/17 01:11:50;;;;;;;1.83;1.50;;;;;;;;;;5068577;28;20598;-61
2022/09/17 01:14:26;;;;;;;1.50;1.40;;;;;;;;;;5057371;28;20233;-60
2022/09/17 01:17:00;;;;;;;4.73;1.50;;;;;;;;;;5061447;28;20208;-61
2022/09/17 01:19:42;;;;;;;3.43;1.70;;;;;;;;;;5057179;28;20213;-61
2022/09/17 01:22:16;;;;;;;1.60;1.50;;;;;;;;;;5045252;28;20548;-60
2022/09/17 01:24:46;;;;;;;2.17;1.97;;;;;;;;;;5055710;28;20230;-60
2022/09/17 01:27:26;;;;;;;2.13;1.60;;;;;;;;;;5045338;28;20203;-60
2022/09/17 01:30:03;;;;;;;4.23;1.90;;;;;;;;;;5052587;28;20219;-60
2022/09/17 01:32:36;;;;;;;3.23;1.50;;;;;;;;;;5068900;28;20226;-61
2022/09/17 01:35:08;;;;;;;5.60;1.60;;;;;;;;;;5055997;28;20235;-60
2022/09/17 01:37:37;;;;;;;3.70;1.73;;;;;;;;;;5049464;28;20210;-60
2022/09/17 01:40:08;;;;;;;3.10;1.60;;;;;;;;;;5063831;28;20210;-60
2022/09/17 01:42:37;;;;;;;4.17;1.93;;;;;;;;;;5067686;28;20660;-60
2022/09/17 01:45:08;;;;;;;3.77;1.70;;;;;;;;;;5055990;28;20864;-60
2022/09/17 01:47:39;;;;;;;2.53;1.70;;;;;;;;;;5072462;28;20206;-60
2022/09/17 01:50:09;;;;;;;3.47;1.30;;;;;;;;;;5059820;28;20202;-60
2022/09/17 01:52:39;;;;;;;3.30;1.87;;;;;;;;;;5067206;28;20714;-61
2022/09/17 01:55:08;;;;;;;2.63;1.93;;;;;;;;;;5070319;28;20600;-61
2022/09/17 01:57:40;;;;;;;2.07;1.60;;;;;;;;;;5060745;28;20581;-60
2022/09/17 02:00:09;;;;;;;1.70;1.60;;;;;;;;;;5070044;28;20213;-60
2022/09/17 02:02:40;;;;;;;4.07;1.87;;;;;;;;;;5075701;28;20198;-61
2022/09/17 02:05:10;;;;;;;2.83;1.70;;;;;;;;;;5071251;28;20228;-61
2022/09/17 02:07:40;;;;;;;5.13;2.20;;;;;;;;;;5072630;28;20211;-61
2022/09/17 02:10:11;;;;;;;3.07;1.47;;;;;;;;;;5071712;28;20202;-61
2022/09/17 02:12:41;;;;;;;2.83;1.60;;;;;;;;;;5060564;28;20227;-60
2022/09/17 02:15:11;;;;;;;1.67;1.57;;;;;;;;;;5067119;28;20218;-60
2022/09/17 02:17:43;;;;;;;4.00;1.47;;;;;;;;;;5068939;28;20204;-60
2022/09/17 02:20:12;;;;;;;3.23;1.63;;;;;;;;;;5071438;28;20217;-60
2022/09/17 02:22:42;;;;;;;6.27;1.80;;;;;;;;;;5072144;28;20203;-60
2022/09/17 02:25:14;;;;;;;1.50;1.40;;;;;;;;;;5070161;28;20225;-60
2022/09/17 02:27:47;;;;;;;6.23;1.60;;;;;;;;;;5060551;28;20225;-60
2022/09/17 02:30:16;;;;;;;2.07;1.80;;;;;;;;;;5061129;28;20206;-60
2022/09/17 02:32:45;;;;;;;1.70;1.40;;;;;;;;;;5071324;28;20227;-60
2022/09/17 02:35:14;;;;;;;3.63;1.60;;;;;;;;;;5048389;28;20235;-60
2022/09/17 02:37:42;;;;;;;3.50;1.70;;;;;;;;;;5058247;28;20210;-60
2022/09/17 02:40:10;;;;;;;4.60;1.37;;;;;;;;;;5060290;28;20211;-61
2022/09/17 02:42:44;;;;;;;3.30;1.40;;;;;;;;;;5077298;28;20202;-61
2022/09/17 02:45:14;;;;;;;3.00;1.60;;;;;;;;;;5060610;28;20651;-60
2022/09/17 02:47:59;;;;;;;2.57;1.30;;;;;;;;;;5048301;28;20207;-60
2022/09/17 02:50:35;;;;;;;2.07;1.10;;;;;;;;;;5062969;28;20881;-60
2022/09/17 02:53:08;;;;;;;2.90;1.50;;;;;;;;;;5068899;28;20227;-62
2022/09/17 02:55:41;;;;;;;4.13;1.70;;;;;;;;;;5071012;28;20207;-60
2022/09/17 02:58:14;;;;;;;2.23;1.30;;;;;;;;;;5068301;28;20221;-60
2022/09/17 03:00:42;;;;;;;4.97;1.67;;;;;;;;;;5073966;28;20203;-61
2022/09/17 03:03:13;;;;;;;2.43;1.60;;;;;;;;;;5067452;28;20203;-60
2022/09/17 03:05:43;;;;;;;2.80;1.50;;;;;;;;;;5069456;28;20210;-60
2022/09/17 03:08:13;;;;;;;1.27;1.17;;;;;;;;;;5059521;28;20207;-60
2022/09/17 03:10:41;;;;;;;2.40;1.30;;;;;;;;;;5070490;28;20203;-61
2022/09/17 03:13:09;;;;;;;1.40;1.30;;;;;;;;;;5054369;28;20223;-61
2022/09/17 03:15:37;;;;;;;2.10;1.13;;;;;;;;;;5066153;28;20207;-61
2022/09/17 03:18:05;;;;;;;4.53;1.77;;;;;;;;;;5068393;28;20201;-61
2022/09/17 03:20:34;;;;;;;1.30;1.20;;;;;;;;;;5065737;28;20206;-61
2022/09/17 03:23:02;;;;;;;2.10;1.33;;;;;;;;;;5058722;28;20213;-60
2022/09/17 03:25:30;;;;;;;1.97;1.23;;;;;;;;;;5059003;28;20670;-61
2022/09/17 03:27:58;;;;;;;1.33;1.00;;;;;;;;;;5061478;28;20206;-60
2022/09/17 03:30:26;;;;;;;1.00;1.00;;;;;;;;;;5067845;28;20209;-60
2022/09/17 03:32:54;;;;;;;4.87;1.47;;;;;;;;;;5067208;28;20234;-60
2022/09/17 03:35:22;;;;;;;2.37;1.30;;;;;;;;;;5047283;28;20214;-60
2022/09/17 03:37:52;;;;;;;1.00;0.93;;;;;;;;;;5058425;28;20206;-60
2022/09/17 03:40:20;;;;;;;3.40;1.37;;;;;;;;;;5070771;28;20666;-60
2022/09/17 03:42:48;;;;;;;1.27;0.87;;;;;;;;;;5058867;28;20759;-60
2022/09/17 03:45:16;;;;;;;1.73;1.03;;;;;;;;;;5063256;28;20725;-60
2022/09/17 03:47:43;;;;;;;1.10;0.90;;;;;;;;;;5070206;28;20553;-60
2022/09/17 03:50:11;;;;;;;3.27;0.93;;;;;;;;;;5069063;28;20658;-60
2022/09/17 03:52:39;;;;;;;2.50;1.00;;;;;;;;;;5058533;28;20226;-61
2022/09/17 03:55:10;;;;;;;3.40;1.10;;;;;;;;;;5070097;28;20251;-61
2022/09/17 03:57:38;;;;;;;1.43;1.17;;;;;;;;;;5060030;28;20199;-61
2022/09/17 04:00:06;;;;;;;1.97;1.07;;;;;;;;;;5060717;28;20213;-61
2022/09/17 04:02:34;;;;;;;2.73;1.00;;;;;;;;;;5070345;28;20209;-61
2022/09/17 04:05:03;;;;;;;0.90;0.90;;;;;;;;;;5068533;28;20271;-61
2022/09/17 04:07:31;;;;;;;1.43;1.10;;;;;;;;;;5058069;28;20202;-61
2022/09/17 04:09:58;;;;;;;1.20;1.10;;;;;;;;;;5068058;28;20205;-61
2022/09/17 04:12:28;;;;;;;2.97;1.00;;;;;;;;;;5058345;28;20235;-61
2022/09/17 04:14:56;;;;;;;1.33;0.77;;;;;;;;;;5069026;28;20694;-61
2022/09/17 04:17:24;;;;;;;1.00;0.90;;;;;;;;;;5067926;28;20203;-61
2022/09/17 04:19:52;;;;;;;0.83;0.73;;;;;;;;;;5067541;28;20217;-61
2022/09/17 04:22:20;;;;;;;2.30;1.10;;;;;;;;;;5058271;28;20214;-61
2022/09/17 04:24:48;;;;;;;0.97;0.83;;;;;;;;;;5064456;28;20586;-61
2022/09/17 04:27:16;;;;;;;0.87;0.87;;;;;;;;;;5070902;28;20206;-61
2022/09/17 04:29:45;;;;;;;2.77;1.10;;;;;;;;;;5070875;28;20202;-61
2022/09/17 04:32:14;;;;;;;0.70;0.70;;;;;;;;;;5058289;28;20203;-60
2022/09/17 04:34:42;;;;;;;0.87;0.87;;;;;;;;;;5056546;28;20223;-61
2022/09/17 04:37:10;;;;;;;1.80;1.10;;;;;;;;;;5060485;28;20205;-61
2022/09/17 04:39:38;;;;;;;0.77;0.63;;;;;;;;;;5061265;28;20203;-61
2022/09/17 04:42:06;;;;;;;2.93;1.10;;;;;;;;;;5053869;28;20195;-61
2022/09/17 04:44:34;;;;;;;3.90;1.27;;;;;;;;;;5057848;28;20703;-61
2022/09/17 04:47:04;;;;;;;1.47;0.90;;;;;;;;;;5056409;28;20202;-61
2022/09/17 04:49:32;;;;;;;0.83;0.60;;;;;;;;;;5059541;28;20202;-61
2022/09/17 04:52:00;;;;;;;1.70;1.17;;;;;;;;;;5056986;28;20226;-61
2022/09/17 04:54:28;;;;;;;2.30;0.80;;;;;;;;;;5055484;28;20239;-61
2022/09/17 04:56:56;;;;;;;0.63;0.63;;;;;;;;;;5057216;28;20199;-61
2022/09/17 04:59:24;;;;;;;1.53;1.43;;;;;;;;;;5057607;28;20195;-61
2022/09/17 05:01:52;;;;;;;1.57;0.87;;;;;;;;;;5055573;28;20221;-61
2022/09/17 05:04:22;;;;;;;1.50;1.00;;;;;;;;;;5055987;28;20268;-60
2022/09/17 05:06:50;;;;;;;2.73;1.00;;;;;;;;;;5054826;28;20619;-60
2022/09/17 05:09:18;;;;;;;1.17;0.80;;;;;;;;;;5056320;28;20212;-61
2022/09/17 05:11:46;;;;;;;4.73;1.00;;;;;;;;;;5069518;28;20285;-61
2022/09/17 05:14:14;;;;;;;2.43;0.73;;;;;;;;;;5053969;28;20237;-60
2022/09/17 05:16:42;;;;;;;1.80;0.70;;;;;;;;;;5056191;28;20541;-60
2022/09/17 05:19:10;;;;;;;1.43;0.90;;;;;;;;;;5058188;28;20673;-61
2022/09/17 05:21:40;;;;;;;1.03;1.03;;;;;;;;;;5056208;28;20631;-58
2022/09/17 05:24:09;;;;;;;1.43;1.13;;;;;;;;;;5056813;28;20272;-59
2022/09/17 05:26:37;;;;;;;0.77;0.77;;;;;;;;;;5056139;28;20559;-58
2022/09/17 05:29:05;;;;;;;1.70;0.70;;;;;;;;;;5061495;28;20203;-58
2022/09/17 05:31:35;;;;;;;1.40;0.80;;;;;;;;;;5055267;28;20198;-59
2022/09/17 05:34:04;;;;;;;1.73;1.20;;;;;;;;;;5062655;28;20269;-59
2022/09/17 05:36:32;;;;;;;2.20;1.23;;;;;;;;;;5060084;28;20199;-59
2022/09/17 05:39:01;;;;;;;0.60;0.60;;;;;;;;;;5060277;28;20236;-59
2022/09/17 05:41:29;;;;;;;0.97;0.70;;;;;;;;;;5060740;28;20210;-59
2022/09/17 05:43:57;;;;;;;2.00;0.90;;;;;;;;;;5057252;28;20215;-59
2022/09/17 05:46:25;;;;;;;2.67;0.93;;;;;;;;;;5063077;28;20206;-59
2022/09/17 05:48:55;;;;;;;1.60;1.00;;;;;;;;;;5062222;28;20549;-58
2022/09/17 05:51:24;;;;;;;1.73;0.70;;;;;;;;;;5061245;28;20206;-59
2022/09/17 05:54:01;;;;;;;4.27;0.80;;;;;;;;;;5058937;28;20230;-58
2022/09/17 05:56:29;;;;;;;1.50;0.90;;;;;;;;;;5063329;28;20203;-58
2022/09/17 05:58:57;;;;;;;2.40;1.23;;;;;;;;;;5059703;28;20205;-59
2022/09/17 06:01:26;;;;;;;3.93;0.90;;;;;;;;;;5059491;28;20610;-59
2022/09/17 06:03:54;;;;;;;4.43;0.90;;;;;;;;;;5065892;28;20298;-59
2022/09/17 06:06:22;;;;;;;1.33;0.83;;;;;;;;;;5059064;28;20206;-59
2022/09/17 06:08:50;;;;;;;5.80;1.00;;;;;;;;;;5060476;28;20203;-59
2022/09/17 06:11:19;;;;;;;1.70;1.00;;;;;;;;;;5054907;28;20206;-59
2022/09/17 06:13:48;;;;;;;0.60;0.60;;;;;;;;;;5058488;28;20227;-59
2022/09/17 06:16:16;;;;;;;1.43;1.00;;;;;;;;;;5054105;28;20682;-59
2022/09/17 06:18:44;;;;;;;1.03;0.70;;;;;;;;;;5058123;28;20195;-58
2022/09/17 06:21:12;;;;;;;3.30;0.87;;;;;;;;;;5062602;28;20195;-59
2022/09/17 06:23:42;;;;;;;1.20;1.03;;;;;;;;;;5058731;28;20222;-59
2022/09/17 06:26:10;;;;;;;2.17;0.80;;;;;;;;;;5061472;28;20199;-59
2022/09/17 06:28:39;;;;;;;0.87;0.83;;;;;;;;;;5059048;28;20195;-59
2022/09/17 06:31:09;;;;;;;0.77;0.77;;;;;;;;;;5053737;28;20213;-59
2022/09/17 06:33:37;;;;;;;1.27;1.00;;;;;;;;;;5060641;28;20222;-59
2022/09/17 06:36:06;;;;;;;0.90;0.90;;;;;;;;;;5044616;28;20199;-59
2022/09/17 06:38:40;;;;;;;1.80;0.90;;;;;;;;;;5058962;28;20203;-59
2022/09/17 06:41:08;;;;;;;1.67;0.93;;;;;;;;;;5060620;28;20227;-59
2022/09/17 06:43:36;;;;;;;2.63;1.07;;;;;;;;;;5059617;28;20238;-59
2022/09/17 06:46:07;;;;;;;3.60;0.87;;;;;;;;;;5055955;28;20210;-59
2022/09/17 06:48:36;;;;;;;3.23;0.90;;;;;;;;;;5053850;28;20856;-59
2022/09/17 06:51:06;;;;;;;0.57;0.57;;;;;;;;;;5056377;28;20688;-61
2022/09/17 06:53:35;;;;;;;1.27;0.70;;;;;;;;;;5056010;28;20242;-60
2022/09/17 06:56:04;;;;;;;2.33;0.70;;;;;;;;;;5057420;28;20708;-59
2022/09/17 06:58:35;;;;;;;1.40;0.90;;;;;;;;;;5048888;28;20210;-61
2022/09/17 07:01:05;;;;;;;2.30;0.80;;;;;;;;;;5068111;28;20265;-61
2022/09/17 07:03:33;;;;;;;2.73;0.60;;;;;;;;;;5051702;28;20222;-61
2022/09/17 07:06:02;;;;;;;2.20;0.87;;;;;;;;;;5059073;28;20199;-61
2022/09/17 07:08:32;;;;;;;1.70;0.80;;;;;;;;;;5059422;28;20206;-63
2022/09/17 07:11:00;;;;;;;0.77;0.77;;;;;;;;;;5055782;28;20218;-61
2022/09/17 07:13:28;;;;;;;1.60;0.63;;;;;;;;;;5059719;28;20222;-60
2022/09/17 07:15:57;;;;;;;3.30;0.80;;;;;;;;;;5069921;28;20217;-62
2022/09/17 07:18:27;;;;;;;1.80;0.80;;;;;;;;;;5064593;28;20208;-61
2022/09/17 07:20:56;;;;;;;1.27;0.73;;;;;;;;;;5076761;28;20209;-62
2022/09/17 07:23:24;;;;;;;1.60;1.00;;;;;;;;;;5065862;28;20227;-63
2022/09/17 07:25:52;;;;;;;2.60;0.90;;;;;;;;;;5068739;28;20203;-63
2022/09/17 07:28:21;;;;;;;0.73;0.73;;;;;;;;;;5064438;28;20253;-64
2022/09/17 07:30:49;;;;;;;2.70;0.70;;;;;;;;;;5048957;28;20206;-63
2022/09/17 07:33:21;;;;;;;1.63;0.70;;;;;;;;;;5055748;28;20229;-64
2022/09/17 07:35:54;;;;;;;1.63;0.63;;;;;;;;;;5057070;28;20253;-63
2022/09/17 07:38:23;;;;;;;1.40;0.60;;;;;;;;;;5058129;28;20217;-63
2022/09/17 07:40:56;;;;;;;1.13;0.70;;;;;;;;;;5056339;28;20199;-63
2022/09/17 07:43:25;;;;;;;4.20;0.60;;;;;;;;;;5060975;28;20214;-63
2022/09/17 07:45:53;;;;;;;1.93;0.40;;;;;;;;;;5078508;28;20202;-63
2022/09/17 07:48:21;;;;;;;2.13;0.80;;;;;;;;;;5078123;28;20217;-63
2022/09/17 07:50:49;;;;;;;1.53;0.63;;;;;;;;;;5078864;28;20206;-64
2022/09/17 07:53:18;;;;;;;1.67;0.90;;;;;;;;;;5077888;28;20232;-63
2022/09/17 07:55:51;;;;;;;1.37;0.80;;;;;;;;;;5078294;28;20222;-63
2022/09/17 07:58:19;;;;;;;1.53;0.60;;;;;;;;;;5078392;28;20208;-63
2022/09/17 08:00:47;;;;;;;1.73;0.70;;;;;;;;;;5078518;28;20210;-63
2022/09/17 08:03:15;;;;;;;1.70;0.70;;;;;;;;;;5063626;28;20230;-64
2022/09/17 08:05:43;;;;;;;2.20;0.90;;;;;;;;;;5058493;28;20209;-63
2022/09/17 08:08:11;;;;;;;1.53;0.60;;;;;;;;;;5056559;28;20587;-63
2022/09/17 08:10:40;;;;;;;1.03;0.60;;;;;;;;;;5062698;28;20695;-63
2022/09/17 08:13:08;;;;;;;1.77;0.73;;;;;;;;;;5057602;28;20554;-63
2022/09/17 08:15:36;;;;;;;8.53;1.07;;;;;;;;;;5053163;28;20241;-63
2022/09/17 08:18:04;;;;;;;3.37;0.70;;;;;;;;;;5057720;28;20566;-63
2022/09/17 08:20:32;;;;;;;0.70;0.70;;;;;;;;;;5057945;28;20206;-63
2022/09/17 08:23:00;;;;;;;1.77;0.50;;;;;;;;;;5057457;28;20195;-63
2022/09/17 08:25:28;;;;;;;3.10;0.80;;;;;;;;;;5057784;28;20199;-63
2022/09/17 08:27:57;;;;;;;3.50;0.80;;;;;;;;;;5057716;28;20207;-63
2022/09/17 08:30:27;;;;;;;0.93;0.70;;;;;;;;;;5057668;28;20203;-63
2022/09/17 08:32:55;;;;;;;0.63;0.63;;;;;;;;;;5057718;28;20207;-63
2022/09/17 08:35:25;;;;;;;0.87;0.80;;;;;;;;;;5057602;28;20223;-63
2022/09/17 08:37:54;;;;;;;2.07;0.80;;;;;;;;;;5057407;28;20671;-63
2022/09/17 08:40:23;;;;;;;1.53;0.60;;;;;;;;;;5063327;28;20214;-63
2022/09/17 08:42:56;;;;;;;1.27;0.50;;;;;;;;;;5076413;28;20209;-64
2022/09/17 08:45:26;;;;;;;1.33;0.60;;;;;;;;;;5077795;28;20199;-63
2022/09/17 08:47:56;;;;;;;1.80;0.80;;;;;;;;;;5077659;28;20216;-63
2022/09/17 08:50:27;;;;;;;0.73;0.60;;;;;;;;;;5077779;28;20210;-63
2022/09/17 08:53:06;;;;;;;1.33;0.70;;;;;;;;;;5077457;28;20210;-63
2022/09/17 08:55:37;;;;;;;3.90;0.80;;;;;;;;;;5077259;28;20225;-63
2022/09/17 08:58:15;;;;;;;2.60;1.27;;;;;;;;;;5077586;28;20210;-64
2022/09/17 09:00:47;;;;;;;1.30;0.87;;;;;;;;;;5077575;28;20214;-64
2022/09/17 09:03:22;;;;;;;5.90;0.80;;;;;;;;;;5077113;28;20222;-64
2022/09/17 09:05:51;;;;;;;1.23;0.80;;;;;;;;;;5077576;28;20205;-61
2022/09/17 09:08:22;;;;;;;1.53;0.97;;;;;;;;;;5077131;28;20546;-62
2022/09/17 09:10:51;;;;;;;3.47;0.67;;;;;;;;;;5076588;28;20210;-62
2022/09/17 09:13:20;;;;;;;1.50;0.70;;;;;;;;;;5073634;28;20234;-64
2022/09/17 09:15:53;;;;;;;1.60;0.73;;;;;;;;;;5067820;28;20229;-64
2022/09/17 09:18:22;;;;;;;4.00;0.90;;;;;;;;;;5055613;28;20416;-64
2022/09/17 09:20:52;;;;;;;1.43;0.80;;;;;;;;;;5057194;28;20206;-64
2022/09/17 09:23:21;;;;;;;1.70;0.83;;;;;;;;;;5056681;28;20243;-64
2022/09/17 09:25:54;;;;;;;2.43;0.70;;;;;;;;;;5057303;28;20214;-64
2022/09/17 09:28:32;;;;;;;1.57;0.60;;;;;;;;;;5057283;28;20211;-63
2022/09/17 09:31:04;;;;;;;2.67;0.70;;;;;;;;;;5057181;28;20199;-64
2022/09/17 09:33:35;;;;;;;0.80;0.63;;;;;;;;;;5056725;28;20237;-64
2022/09/17 09:36:05;;;;;;;2.70;0.67;;;;;;;;;;5057293;28;20233;-64
2022/09/17 09:38:35;;;;;;;0.50;0.47;;;;;;;;;;5056895;28;20203;-64
2022/09/17 09:41:07;;;;;;;2.77;0.70;;;;;;;;;;5056845;28;20203;-64
2022/09/17 09:43:38;;;;;;;1.30;0.80;;;;;;;;;;5056891;28;20245;-64
2022/09/17 09:46:32;;;;;;;2.20;0.80;;;;;;;;;;5056770;28;20253;-64
2022/09/17 09:49:05;;;;;;;2.97;0.90;;;;;;;;;;5057125;28;20306;-64
2022/09/17 09:51:41;;;;;;;1.07;0.67;;;;;;;;;;5056851;28;20663;-64
2022/09/17 09:54:19;;;;;;;3.27;0.90;;;;;;;;;;5056324;28;20690;-64
2022/09/17 09:56:57;;;;;;;2.23;1.00;;;;;;;;;;5056976;28;20222;-64
2022/09/17 09:59:25;;;;;;;2.53;0.70;;;;;;;;;;5056858;28;20234;-64
2022/09/17 10:01:55;;;;;;;4.20;1.13;;;;;;;;;;5056711;28;20207;-62
2022/09/17 10:04:24;;;;;;;0.73;0.73;;;;;;;;;;5056749;28;20231;-62
2022/09/17 10:06:53;;;;;;;4.13;0.87;;;;;;;;;;5056722;28;20213;-62
2022/09/17 10:09:21;;;;;;;2.53;1.03;;;;;;;;;;5056991;28;20214;-62
2022/09/17 10:12:04;;;;;;;1.27;0.50;;;;;;;;;;5076550;28;20202;-62
2022/09/17 10:14:33;;;;;;;3.47;0.93;;;;;;;;;;5064219;28;20231;-63
2022/09/17 10:17:14;;;;;;;1.20;0.70;;;;;;;;;;5060187;28;20223;-63
2022/09/17 10:19:42;;;;;;;0.93;0.77;;;;;;;;;;5060728;28;20207;-64
2022/09/17 10:22:22;;;;;;;1.07;0.60;;;;;;;;;;5060307;28;20207;-65
2022/09/17 10:24:51;;;;;;;0.87;0.67;;;;;;;;;;5060056;28;20592;-65
2022/09/17 10:27:21;;;;;;;1.23;0.60;;;;;;;;;;5070434;28;20202;-64
2022/09/17 10:29:50;;;;;;;1.23;0.50;;;;;;;;;;5078656;28;20206;-63
2022/09/17 10:32:21;;;;;;;1.10;0.93;;;;;;;;;;5060314;28;20203;-63
2022/09/17 10:34:59;;;;;;;0.83;0.57;;;;;;;;;;5059684;28;20227;-62
2022/09/17 10:37:35;;;;;;;3.83;0.80;;;;;;;;;;5059465;28;20402;-63
2022/09/17 10:40:22;;;;;;;1.40;0.70;;;;;;;;;;5059864;28;20210;-63
2022/09/17 10:42:51;;;;;;;0.70;0.40;;;;;;;;;;5059692;28;20289;-64
2022/09/17 10:45:24;;;;;;;2.90;0.70;;;;;;;;;;5055276;28;20207;-62
2022/09/17 10:47:54;;;;;;;1.10;1.03;;;;;;;;;;5059821;28;20210;-62
2022/09/17 10:50:24;;;;;;;0.77;0.60;;;;;;;;;;5065153;28;20213;-62
2022/09/17 10:52:54;;;;;;;1.50;0.70;;;;;;;;;;5079082;28;20206;-63
2022/09/17 10:55:24;;;;;;;1.83;0.70;;;;;;;;;;5079438;28;20249;-62
2022/09/17 10:58:03;;;;;;;2.70;0.93;;;;;;;;;;5079382;28;20240;-63
2022/09/17 11:00:37;;;;;;;3.43;0.90;;;;;;;;;;5079441;28;20364;-62
2022/09/17 11:03:25;;;;;;;1.87;0.80;;;;;;;;;;5079325;28;20217;-62
2022/09/17 11:06:07;;;;;;;2.30;0.60;;;;;;;;;;5079719;28;20213;-63
2022/09/17 11:08:44;;;;;;;0.83;0.50;;;;;;;;;;5079039;28;20631;-62
2022/09/17 11:11:17;;;;;;;0.50;0.50;;;;;;;;;;5061580;28;20569;-63
2022/09/17 11:13:48;;;;;;;2.40;0.70;;;;;;;;;;5059444;28;20230;-64
2022/09/17 11:16:22;;;;;;;1.60;0.60;;;;;;;;;;5059047;28;20233;-64
2022/09/17 11:18:58;;;;;;;1.17;0.80;;;;;;;;;;5059046;28;20206;-62
2022/09/17 11:21:36;;;;;;;1.17;0.60;;;;;;;;;;5059091;28;20708;-63
2022/09/17 11:24:15;;;;;;;1.20;0.70;;;;;;;;;;5058899;28;20237;-64
2022/09/17 11:26:46;;;;;;;3.90;0.60;;;;;;;;;;5058788;28;20203;-64
2022/09/17 11:29:24;;;;;;;1.47;0.90;;;;;;;;;;5059281;28;20207;-64
2022/09/17 11:31:56;;;;;;;0.53;0.40;;;;;;;;;;5058889;28;20206;-64
2022/09/17 11:34:31;;;;;;;2.37;1.03;;;;;;;;;;5067246;28;20226;-64
2022/09/17 11:37:03;;;;;;;2.97;0.90;;;;;;;;;;5058474;28;20240;-62
2022/09/17 11:39:35;;;;;;;1.17;0.50;;;;;;;;;;5058900;28;20211;-62
2022/09/17 11:42:06;;;;;;;0.53;0.53;;;;;;;;;;5058898;28;20213;-64
2022/09/17 11:44:38;;;;;;;0.60;0.60;;;;;;;;;;5058648;28;20241;-62
2022/09/17 11:47:09;;;;;;;0.67;0.57;;;;;;;;;;5058560;28;20704;-62
2022/09/17 11:49:38;;;;;;;1.40;0.83;;;;;;;;;;5058581;28;20210;-62
2022/09/17 11:52:10;;;;;;;1.07;0.73;;;;;;;;;;5058260;28;20673;-62
2022/09/17 11:54:39;;;;;;;2.40;0.97;;;;;;;;;;5058319;28;20245;-63
2022/09/17 11:57:12;;;;;;;3.43;0.80;;;;;;;;;;5058585;28;20229;-62
2022/09/17 11:59:44;;;;;;;1.87;0.63;;;;;;;;;;5058895;28;20210;-62
2022/09/17 12:02:16;;;;;;;1.97;0.73;;;;;;;;;;5058709;28;20211;-62
2022/09/17 12:04:46;;;;;;;0.93;0.53;;;;;;;;;;5058474;28;20272;-62
2022/09/17 12:07:19;;;;;;;1.33;0.70;;;;;;;;;;5058292;28;20203;-63
2022/09/17 12:09:50;;;;;;;2.00;0.40;;;;;;;;;;5058437;28;20203;-64
2022/09/17 12:12:19;;;;;;;0.70;0.70;;;;;;;;;;5058473;28;20214;-64
2022/09/17 12:15:13;;;;;;;2.13;0.70;;;;;;;;;;5058077;28;20230;-64
2022/09/17 12:17:44;;;;;;;1.33;0.80;;;;;;;;;;5053478;28;20226;-64
2022/09/17 12:20:20;;;;;;;1.53;0.50;;;;;;;;;;5058126;28;20210;-64
2022/09/17 12:22:51;;;;;;;1.53;0.63;;;;;;;;;;5058025;28;20217;-62
2022/09/17 12:25:20;;;;;;;0.53;0.47;;;;;;;;;;5058234;28;20210;-62
2022/09/17 12:27:53;;;;;;;1.73;0.43;;;;;;;;;;5058153;28;20203;-63
2022/09/17 12:30:21;;;;;;;0.60;0.47;;;;;;;;;;5057868;28;20548;-63
2022/09/17 12:32:55;;;;;;;1.43;0.60;;;;;;;;;;5058309;28;20294;-63
2022/09/17 12:35:35;;;;;;;0.73;0.67;;;;;;;;;;5057972;28;20555;-63
2022/09/17 12:38:34;;;;;;;1.40;0.70;;;;;;;;;;5056794;28;20233;-63
2022/09/17 12:41:06;;;;;;;0.83;0.50;;;;;;;;;;5057941;28;20211;-63
2022/09/17 12:43:44;;;;;;;1.57;0.73;;;;;;;;;;5058015;28;20235;-63
2022/09/17 12:46:17;;;;;;;1.20;0.53;;;;;;;;;;5057881;28;20210;-63
2022/09/17 12:48:53;;;;;;;2.97;0.87;;;;;;;;;;5058568;28;20732;-63
2022/09/17 12:51:27;;;;;;;3.03;1.43;;;;;;;;;;5057711;28;20220;-63
2022/09/17 12:54:04;;;;;;;3.73;0.93;;;;;;;;;;5057069;28;20601;-63
2022/09/17 12:56:39;;;;;;;1.40;0.47;;;;;;;;;;5057628;28;20211;-63
2022/09/17 12:59:10;;;;;;;1.57;0.80;;;;;;;;;;5063007;28;20189;-63
2022/09/17 13:01:43;;;;;;;1.03;0.67;;;;;;;;;;5077711;28;20210;-63
2022/09/17 13:04:17;;;;;;;1.97;0.57;;;;;;;;;;5076573;28;20233;-63
2022/09/17 13:06:58;;;;;;;2.97;0.73;;;;;;;;;;5077199;28;20212;-64
2022/09/17 13:09:45;;;;;;;0.87;0.53;;;;;;;;;;5077857;28;20210;-65
2022/09/17 13:12:24;;;;;;;1.73;0.60;;;;;;;;;;5077628;28;20206;-65
2022/09/17 13:15:09;;;;;;;3.67;0.80;;;;;;;;;;5061257;28;20226;-62
2022/09/17 13:17:39;;;;;;;3.20;0.63;;;;;;;;;;5035449;28;20230;-62
2022/09/17 13:20:15;;;;;;;1.63;0.83;;;;;;;;;;5057262;28;20210;-62
2022/09/17 13:22:47;;;;;;;0.97;0.87;;;;;;;;;;5057173;28;20288;-62
2022/09/17 13:25:18;;;;;;;2.07;0.80;;;;;;;;;;5057265;28;20230;-62
2022/09/17 13:27:47;;;;;;;0.80;0.57;;;;;;;;;;5057300;28;20270;-63
2022/09/17 13:30:16;;;;;;;1.30;0.70;;;;;;;;;;5057333;28;20210;-63
2022/09/17 13:32:48;;;;;;;0.87;0.63;;;;;;;;;;5057462;28;20207;-62
2022/09/17 13:35:35;;;;;;;1.43;0.53;;;;;;;;;;5057304;28;20223;-63
2022/09/17 13:38:03;;;;;;;1.57;0.70;;;;;;;;;;5056817;28;20720;-64
2022/09/17 13:40:33;;;;;;;1.27;0.70;;;;;;;;;;5057086;28;20214;-62
2022/09/17 13:43:08;;;;;;;1.23;0.60;;;;;;;;;;5057086;28;20207;-62
2022/09/17 13:45:56;;;;;;;2.23;1.50;;;;;;;;;;5057030;28;20203;-62
2022/09/17 13:48:25;;;;;;;2.70;0.80;;;;;;;;;;5053244;28;20206;-62
2022/09/17 13:50:53;;;;;;;0.57;0.53;;;;;;;;;;5055873;28;20221;-64
2022/09/17 13:53:25;;;;;;;3.53;1.10;;;;;;;;;;5060526;28;20578;-65
2022/09/17 13:55:57;;;;;;;2.77;0.70;;;;;;;;;;5060748;28;20217;-62
2022/09/17 13:58:26;;;;;;;2.30;0.83;;;;;;;;;;5061043;28;20330;-63
2022/09/17 14:00:56;;;;;;;1.70;0.77;;;;;;;;;;5060827;28;20211;-62
2022/09/17 14:03:43;;;;;;;0.97;0.70;;;;;;;;;;5060462;28;20755;-62
2022/09/17 14:06:35;;;;;;;2.50;0.90;;;;;;;;;;5067949;28;20650;-62
2022/09/17 14:09:23;;;;;;;1.83;1.10;;;;;;;;;;5070055;28;20649;-62
2022/09/17 14:11:52;;;;;;;4.63;0.87;;;;;;;;;;5080086;28;20225;-62
2022/09/17 14:14:50;;;;;;;2.43;0.87;;;;;;;;;;5068662;28;20227;-62
2022/09/17 14:17:39;;;;;;;2.80;1.00;;;;;;;;;;4998802;28;20224;-62
2022/09/17 14:20:08;;;;;;;4.57;0.90;;;;;;;;;;5054818;28;20207;-62
2022/09/17 14:22:36;;;;;;;1.10;0.70;;;;;;;;;;5060080;28;20667;-65
2022/09/17 14:25:15;;;;;;;0.60;0.60;;;;;;;;;;5072627;28;20622;-65
2022/09/17 14:27:53;;;;;;;0.80;0.70;;;;;;;;;;5080239;28;20665;-65
2022/09/17 14:30:22;;;;;;;2.10;1.10;;;;;;;;;;5074463;28;20203;-64
2022/09/17 14:32:54;;;;;;;1.30;0.80;;;;;;;;;;5060221;28;20215;-64
2022/09/17 14:35:23;;;;;;;2.37;0.67;;;;;;;;;;5060239;28;20207;-65
2022/09/17 14:37:54;;;;;;;0.83;0.60;;;;;;;;;;5059964;28;20207;-65
2022/09/17 14:40:22;;;;;;;0.90;0.60;;;;;;;;;;5060009;28;20207;-65
2022/09/17 14:42:54;;;;;;;1.53;1.03;;;;;;;;;;5060106;28;20237;-64
2022/09/17 14:45:24;;;;;;;0.80;0.63;;;;;;;;;;5060201;28;20211;-64
2022/09/17 14:48:07;;;;;;;2.53;0.93;;;;;;;;;;5059927;28;20207;-64
2022/09/17 14:50:35;;;;;;;2.63;0.77;;;;;;;;;;5059619;28;20214;-64
2022/09/17 14:53:08;;;;;;;1.83;0.53;;;;;;;;;;5059423;28;20214;-64
2022/09/17 14:55:40;;;;;;;2.70;0.90;;;;;;;;;;5059567;28;20203;-64
2022/09/17 14:58:25;;;;;;;1.00;0.70;;;;;;;;;;5059837;28;20238;-64
2022/09/17 15:00:53;;;;;;;4.37;1.03;;;;;;;;;;5058952;28;20218;-64
2022/09/17 15:03:21;;;;;;;2.40;1.10;;;;;;;;;;5059684;28;20238;-65
2022/09/17 15:05:50;;;;;;;2.00;0.80;;;;;;;;;;5059613;28;20551;-64
2022/09/17 15:08:20;;;;;;;1.83;0.80;;;;;;;;;;5079026;28;20213;-63